createdAt,value
2022-10-05T00:01:52.719Z,17.07
2022-10-05T00:04:24.417Z,18.50
2022-10-05T00:07:02.698Z,20.10
2022-10-05T00:09:31.818Z,23.10
2022-10-05T00:11:58.906Z,29.23
2022-10-05T00:14:36.867Z,21.60
2022-10-05T00:17:05.472Z,33.07
2022-10-05T00:19:37.724Z,33.00
2022-10-05T00:22:19.082Z,33.53
2022-10-05T00:24:48.477Z,51.67
2022-10-05T00:27:30.952Z,57.73
2022-10-05T00:30:23.525Z,33.00
2022-10-05T00:32:53.029Z,48.73
2022-10-05T00:35:23.292Z,31.33
2022-10-05T00:37:54.913Z,30.43
2022-10-05T00:41:03.871Z,35.00
2022-10-05T00:44:04.077Z,61.43
2022-10-05T00:46:56.843Z,31.10
2022-10-05T00:50:10.211Z,37.00
2022-10-05T00:53:18.966Z,39.53
2022-10-05T00:56:18.367Z,58.70
2022-10-05T00:59:04.637Z,66.93
2022-10-05T01:02:09.440Z,37.73
2022-10-05T01:05:22.627Z,61.57
2022-10-05T01:41:26.714Z,52.53
2022-10-05T01:44:08.218Z,50.40
2022-10-05T01:47:09.124Z,58.30
2022-10-05T01:49:54.623Z,73.40
2022-10-05T01:52:53.437Z,46.00
2022-10-05T01:55:51.846Z,42.93
2022-10-05T01:58:49.623Z,55.77
2022-10-05T02:01:44.788Z,47.37
2022-10-05T02:04:43.353Z,54.60
2022-10-05T02:07:18.325Z,43.93
2022-10-05T02:10:16.381Z,50.93
2022-10-05T02:12:44.914Z,50.97
2022-10-05T02:15:19.819Z,42.97
2022-10-05T02:17:57.364Z,47.17
2022-10-05T02:20:28.542Z,40.43
2022-10-05T02:23:04.077Z,33.10
2022-10-05T02:25:35.589Z,40.53
2022-10-05T02:28:37.373Z,45.53
2022-10-05T02:31:30.846Z,43.83
2022-10-05T02:34:40.019Z,51.03
2022-10-05T02:37:46.432Z,39.27
2022-10-05T02:40:52.633Z,37.43
2022-10-05T02:44:02.583Z,32.00
2022-10-05T02:47:13.267Z,27.83
2022-10-05T02:49:59.395Z,30.37
2022-10-05T02:52:59.532Z,48.73
2022-10-05T02:56:04.228Z,41.33
2022-10-05T02:58:49.151Z,38.93
2022-10-05T03:01:31.258Z,45.53
2022-10-05T03:04:44.863Z,38.03
2022-10-05T03:07:41.686Z,44.07
2022-10-05T03:10:20.858Z,44.93
2022-10-05T03:13:30.176Z,44.37
2022-10-05T03:16:22.219Z,35.60
2022-10-05T03:19:19.960Z,29.53
2022-10-05T03:22:30.332Z,25.20
2022-10-05T03:25:25.978Z,23.23
2022-10-05T03:28:31.014Z,21.10
2022-10-05T03:31:14.944Z,18.23
2022-10-05T03:34:06.996Z,20.67
2022-10-05T03:37:22.764Z,19.23
2022-10-05T03:40:25.714Z,18.20
2022-10-05T03:43:40.023Z,16.43
2022-10-05T03:46:44.608Z,16.80
2022-10-05T03:52:58.724Z,14.50
2022-10-05T03:55:50.173Z,15.20
2022-10-05T03:58:28.788Z,14.70
2022-10-05T04:01:15.757Z,15.73
2022-10-05T04:03:56.883Z,14.73
2022-10-05T04:09:35.398Z,16.60
2022-10-05T04:12:37.565Z,14.53
2022-10-05T04:15:18.899Z,17.33
2022-10-05T04:17:52.417Z,17.73
2022-10-05T04:20:32.986Z,16.67
2022-10-05T04:23:40.521Z,15.83
2022-10-05T04:26:18.949Z,18.13
2022-10-05T04:29:14.256Z,17.23
2022-10-05T04:32:25.229Z,20.33
2022-10-05T04:35:09.734Z,22.77
2022-10-05T04:38:09.398Z,23.30
2022-10-05T04:41:14.175Z,24.27
2022-10-05T04:44:43.371Z,21.67
2022-10-05T04:47:45.948Z,23.00
2022-10-05T04:50:26.050Z,22.17
2022-10-05T04:53:17.603Z,18.90
2022-10-05T04:56:20.567Z,19.93
2022-10-05T04:59:39.374Z,21.87
2022-10-05T05:02:53.190Z,19.73
2022-10-05T05:06:18.353Z,21.13
2022-10-05T05:21:47.676Z,19.10
2022-10-05T05:24:45.919Z,18.83
2022-10-05T05:42:30.801Z,20.20
2022-10-05T05:45:04.193Z,16.83
2022-10-05T05:47:37.844Z,15.03
2022-10-05T05:50:56.944Z,14.53
2022-10-05T05:53:37.161Z,13.87
2022-10-05T05:56:12.032Z,12.70
2022-10-05T05:58:47.075Z,13.37
2022-10-05T06:01:44.360Z,11.80
2022-10-05T06:04:33.439Z,11.43
2022-10-05T06:07:03.559Z,11.90
2022-10-05T06:09:47.152Z,11.97
2022-10-05T06:12:45.522Z,10.90
2022-10-05T06:15:35.129Z,14.20
2022-10-05T06:18:09.821Z,15.63
2022-10-05T06:21:09.744Z,14.03
2022-10-05T06:23:55.320Z,14.60
2022-10-05T06:27:13.912Z,15.50
2022-10-05T06:30:11.718Z,13.73
2022-10-05T06:33:08.543Z,11.80
2022-10-05T06:36:32.582Z,11.33
2022-10-05T06:40:01.271Z,11.67
2022-10-05T06:43:02.066Z,10.73
2022-10-05T06:46:23.284Z,9.77
2022-10-05T07:12:23.777Z,8.20
2022-10-05T07:15:28.057Z,9.30
2022-10-05T07:18:23.510Z,9.10
2022-10-05T07:21:20.102Z,9.17
2022-10-05T07:24:27.419Z,8.73
2022-10-05T07:27:08.013Z,9.50
2022-10-05T07:30:11.790Z,9.60
2022-10-05T07:33:13.811Z,10.33
2022-10-05T07:36:39.761Z,9.17
2022-10-05T07:39:18.760Z,10.60
2022-10-05T07:41:54.768Z,9.20
2022-10-05T07:44:31.008Z,9.77
2022-10-05T07:47:08.080Z,11.30
2022-10-05T07:50:05.519Z,11.33
2022-10-05T07:52:42.605Z,10.57
2022-10-05T07:55:25.543Z,12.47
2022-10-05T07:58:19.288Z,12.60
2022-10-05T08:01:34.456Z,13.10
2022-10-05T08:04:24.301Z,13.57
2022-10-05T08:06:59.846Z,13.83
2022-10-05T08:09:55.806Z,12.87
2022-10-05T08:12:51.045Z,14.13
2022-10-05T08:15:25.790Z,14.23
2022-10-05T08:18:09.185Z,10.80
2022-10-05T08:20:56.885Z,10.53
2022-10-05T08:23:38.712Z,9.13
2022-10-05T08:26:31.800Z,8.00
2022-10-05T08:29:33.116Z,7.03
2022-10-05T08:32:11.143Z,7.10
2022-10-05T08:35:05.998Z,6.47
2022-10-05T08:37:42.409Z,6.07
2022-10-05T08:40:54.741Z,6.30
2022-10-05T08:44:10.087Z,5.60
2022-10-05T08:47:16.195Z,5.10
2022-10-05T08:50:35.492Z,4.57
2022-10-05T08:53:37.469Z,4.87
2022-10-05T08:56:29.081Z,4.77
2022-10-05T08:59:52.447Z,4.47
2022-10-05T09:02:53.130Z,4.50
2022-10-05T09:06:06.343Z,4.40
2022-10-05T09:09:06.549Z,4.97
2022-10-05T09:11:40.722Z,4.30
2022-10-05T09:15:24.446Z,4.20
2022-10-05T09:18:38.790Z,5.50
2022-10-05T09:21:25.152Z,4.80
2022-10-05T09:33:08.940Z,4.40
2022-10-05T09:45:31.831Z,4.60
2022-10-05T10:30:26.292Z,3.63
2022-10-05T10:33:25.778Z,3.50
2022-10-05T10:36:04.426Z,3.50
2022-10-05T10:38:48.963Z,3.33
2022-10-05T10:41:55.491Z,3.30
2022-10-05T10:45:21.270Z,3.47
2022-10-05T10:48:03.304Z,3.47
2022-10-05T10:51:16.769Z,3.23
2022-10-05T10:54:25.071Z,3.83
2022-10-05T10:57:42.597Z,3.37
2022-10-05T11:23:04.193Z,2.50
2022-10-05T11:26:14.650Z,2.77
2022-10-05T11:29:11.497Z,3.17
2022-10-05T11:32:15.371Z,3.30
2022-10-05T11:35:20.969Z,3.63
2022-10-05T11:38:15.893Z,2.93
2022-10-05T11:41:33.854Z,3.00
2022-10-05T11:44:51.887Z,3.43
2022-10-05T11:47:58.376Z,3.30
2022-10-05T11:50:57.727Z,3.30
2022-10-05T11:53:36.807Z,3.30
2022-10-05T11:59:59.155Z,2.53
2022-10-05T12:03:14.142Z,2.73
2022-10-05T12:05:57.733Z,2.50
2022-10-05T12:08:51.681Z,2.80
2022-10-05T12:11:38.365Z,2.30
2022-10-05T12:14:28.476Z,3.00
2022-10-05T12:17:00.763Z,2.30
2022-10-05T12:19:36.638Z,2.33
2022-10-05T12:22:31.672Z,2.37
2022-10-05T12:25:40.169Z,2.33
2022-10-05T12:28:14.523Z,2.50
2022-10-05T12:31:23.396Z,2.33
2022-10-05T12:34:21.464Z,1.90
2022-10-05T12:37:08.752Z,2.30
2022-10-05T12:40:40.389Z,2.30
2022-10-05T12:43:46.952Z,2.23
2022-10-05T12:53:02.823Z,2.03
2022-10-05T13:15:52.246Z,1.80
2022-10-05T13:18:46.424Z,1.97
2022-10-05T13:21:17.272Z,2.03
2022-10-05T13:26:35.522Z,1.60
2022-10-05T13:29:24.233Z,2.00
2022-10-05T13:31:56.430Z,1.75
2022-10-05T13:34:47.082Z,2.08
2022-10-05T13:37:51.566Z,2.20
2022-10-05T13:40:39.248Z,2.20
2022-10-05T13:43:52.215Z,1.80
2022-10-05T13:46:46.791Z,2.53
2022-10-05T13:49:55.344Z,2.05
2022-10-05T13:53:06.919Z,2.08
2022-10-05T13:55:49.499Z,2.00
2022-10-05T13:58:45.537Z,1.85
2022-10-05T14:01:45.795Z,2.33
2022-10-05T14:04:27.356Z,2.00
2022-10-05T14:06:54.526Z,2.03
2022-10-05T14:09:34.020Z,1.90
2022-10-05T14:12:20.508Z,2.33
2022-10-05T14:14:58.388Z,2.35
2022-10-05T14:17:40.986Z,2.63
2022-10-05T14:20:31.162Z,2.42
2022-10-05T14:23:06.037Z,2.47
2022-10-05T14:25:47.337Z,2.35
2022-10-05T14:28:32.462Z,2.10
2022-10-05T14:31:03.012Z,2.60
2022-10-05T14:33:35.234Z,2.17
2022-10-05T14:36:03.508Z,2.15
2022-10-05T14:38:49.358Z,2.10
2022-10-05T14:41:19.722Z,2.30
2022-10-05T14:44:29.752Z,1.88
2022-10-05T14:47:03.799Z,2.40
2022-10-05T14:49:36.900Z,1.90
2022-10-05T14:52:32.635Z,2.20
2022-10-05T14:55:25.076Z,2.30
2022-10-05T14:58:35.877Z,2.15
2022-10-05T15:01:27.924Z,1.95
2022-10-05T15:04:34.480Z,1.80
2022-10-05T15:07:41.320Z,2.00
2022-10-05T15:10:32.348Z,1.90
2022-10-05T15:13:11.510Z,1.85
2022-10-05T15:16:20.478Z,2.30
2022-10-05T15:19:14.458Z,2.17
2022-10-05T15:22:29.277Z,1.80
2022-10-05T15:25:17.265Z,1.75
2022-10-05T15:28:22.791Z,1.90
2022-10-05T15:31:04.171Z,2.17
2022-10-05T15:33:38.224Z,2.30
2022-10-05T15:36:35.651Z,1.95
2022-10-05T15:39:28.502Z,1.95
2022-10-05T15:42:02.121Z,2.03
2022-10-05T15:45:03.241Z,1.88
2022-10-05T15:48:06.534Z,1.90
2022-10-05T15:50:45.710Z,1.80
2022-10-05T15:53:45.895Z,1.70
2022-10-05T15:56:38.735Z,1.80
2022-10-05T16:02:52.162Z,2.58
2022-10-05T16:05:57.549Z,2.50
2022-10-05T16:09:29.334Z,2.60
2022-10-05T16:12:10.499Z,2.50
2022-10-05T16:15:16.450Z,3.37
2022-10-05T16:18:30.652Z,2.53
2022-10-05T16:21:29.608Z,2.20
2022-10-05T16:24:24.348Z,2.17
2022-10-05T16:27:00.631Z,2.20
2022-10-05T16:29:58.088Z,3.27
2022-10-05T16:32:50.060Z,3.10
2022-10-05T16:35:55.991Z,2.60
2022-10-05T16:38:49.651Z,2.10
2022-10-05T16:41:30.192Z,2.53
2022-10-05T16:44:30.088Z,2.20
2022-10-05T16:47:22.885Z,1.87
2022-10-05T16:50:17.928Z,2.20
2022-10-05T16:52:50.681Z,2.20
2022-10-05T16:55:37.156Z,2.40
2022-10-05T16:58:13.951Z,2.47
2022-10-05T17:01:28.967Z,2.50
2022-10-05T17:04:56.848Z,2.20
2022-10-05T17:08:08.834Z,2.30
2022-10-05T17:10:53.854Z,2.20
2022-10-05T17:13:50.659Z,2.43
2022-10-05T17:16:52.751Z,2.50
2022-10-05T17:20:15.720Z,2.13
2022-10-05T17:22:55.111Z,1.90
2022-10-05T17:25:37.647Z,2.43
2022-10-05T17:28:39.654Z,2.10
2022-10-05T17:31:21.852Z,2.17
2022-10-05T17:34:11.062Z,1.83
2022-10-05T17:36:57.939Z,2.07
2022-10-05T17:39:45.503Z,2.23
2022-10-05T17:42:48.639Z,2.37
2022-10-05T17:45:36.005Z,2.03
2022-10-05T17:48:04.988Z,2.00
2022-10-05T17:51:07.516Z,2.00
2022-10-05T17:53:57.071Z,1.73
2022-10-05T17:56:24.714Z,2.03
2022-10-05T17:59:02.691Z,1.90
2022-10-05T18:01:37.003Z,2.30
2022-10-05T18:04:33.787Z,2.07
2022-10-05T18:07:02.705Z,2.07
2022-10-05T18:09:33.198Z,2.20
2022-10-05T18:12:39.217Z,2.10
2022-10-05T18:15:22.378Z,1.83
2022-10-05T18:17:51.563Z,2.23
2022-10-05T18:20:31.506Z,2.00
2022-10-05T18:23:25.812Z,2.43
2022-10-05T18:25:56.868Z,1.93
2022-10-05T18:28:43.050Z,2.20
2022-10-05T18:31:18.210Z,2.00
2022-10-05T18:33:59.781Z,2.23
2022-10-05T18:36:40.275Z,1.90
2022-10-05T18:39:34.192Z,2.20
2022-10-05T18:42:17.528Z,1.80
2022-10-05T18:44:48.067Z,2.20
2022-10-05T18:47:53.753Z,2.53
2022-10-05T18:50:30.437Z,3.07
2022-10-05T18:53:19.100Z,3.10
2022-10-05T18:55:49.959Z,3.00
2022-10-05T18:58:21.492Z,3.40
2022-10-05T19:01:07.493Z,3.07
2022-10-05T19:04:08.672Z,3.03
2022-10-05T19:06:43.921Z,2.50
2022-10-05T19:09:57.731Z,3.20
2022-10-05T19:12:53.637Z,2.73
2022-10-05T19:15:41.253Z,2.43
2022-10-05T19:18:19.095Z,2.73
2022-10-05T19:20:54.700Z,2.97
2022-10-05T19:23:45.241Z,3.10
2022-10-05T19:26:15.003Z,2.97
2022-10-05T19:28:59.704Z,2.40
2022-10-05T19:31:37.800Z,2.90
2022-10-05T19:34:16.700Z,3.03
2022-10-05T19:37:04.333Z,3.47
2022-10-05T19:39:50.379Z,3.33
2022-10-05T19:42:28.799Z,2.93
2022-10-05T19:45:04.187Z,2.90
2022-10-05T19:47:54.842Z,3.23
2022-10-05T19:50:29.890Z,3.10
2022-10-05T19:53:02.496Z,2.67
2022-10-05T19:55:36.359Z,4.23
2022-10-05T19:58:21.058Z,3.50
2022-10-05T20:01:07.275Z,3.90
2022-10-05T20:03:38.032Z,3.47
2022-10-05T20:06:07.431Z,3.40
2022-10-05T20:08:54.193Z,4.30
2022-10-05T20:11:23.427Z,3.67
2022-10-05T20:14:16.871Z,3.83
2022-10-05T20:17:02.666Z,3.70
2022-10-05T20:19:59.289Z,4.00
2022-10-05T20:22:40.945Z,3.77
2022-10-05T20:25:40.772Z,4.00
2022-10-05T20:28:08.302Z,3.87
2022-10-05T20:30:35.361Z,4.07
2022-10-05T20:33:04.800Z,3.90
2022-10-05T20:35:32.170Z,4.07
2022-10-05T20:38:00.313Z,4.07
2022-10-05T20:40:29.384Z,4.33
2022-10-05T20:42:57.949Z,4.10
2022-10-05T20:45:25.560Z,4.30
2022-10-05T20:47:53.011Z,4.20
2022-10-05T20:50:22.292Z,4.13
2022-10-05T20:52:49.749Z,4.60
2022-10-05T20:55:17.114Z,4.67
2022-10-05T20:57:46.234Z,5.00
2022-10-05T21:00:14.101Z,4.50
2022-10-05T21:02:41.278Z,5.13
2022-10-05T21:05:09.164Z,4.70
2022-10-05T21:07:36.300Z,4.93
2022-10-05T21:10:04.080Z,5.47
2022-10-05T21:12:32.822Z,4.83
2022-10-05T21:14:59.976Z,4.90
2022-10-05T21:17:27.012Z,5.60
2022-10-05T21:19:54.036Z,5.87
2022-10-05T21:22:21.072Z,5.23
2022-10-05T21:24:48.556Z,5.40
2022-10-05T21:27:16.489Z,5.20
2022-10-05T21:29:44.304Z,5.73
2022-10-05T21:32:12.042Z,5.87
2022-10-05T21:34:40.237Z,5.50
2022-10-05T21:37:08.466Z,5.63
2022-10-05T21:39:36.735Z,5.93
2022-10-05T21:42:04.523Z,6.47
2022-10-05T21:44:31.562Z,5.70
2022-10-05T21:46:58.676Z,6.00
2022-10-05T21:49:26.847Z,6.33
2022-10-05T21:51:54.392Z,6.27
2022-10-05T21:54:22.974Z,5.53
2022-10-05T21:56:54.502Z,5.47
2022-10-05T21:59:26.677Z,5.50
2022-10-05T22:01:54.090Z,5.90
2022-10-05T22:04:21.073Z,5.27
2022-10-05T22:06:49.112Z,5.93
2022-10-05T22:09:16.128Z,6.07
2022-10-05T22:11:46.147Z,6.03
2022-10-05T22:14:15.179Z,5.73
2022-10-05T22:16:43.818Z,5.30
2022-10-05T22:19:18.166Z,5.27
2022-10-05T22:21:45.285Z,5.97
2022-10-05T22:24:12.322Z,6.13
2022-10-05T22:26:42.041Z,6.17
2022-10-05T22:29:09.775Z,6.30
2022-10-05T22:31:37.282Z,6.13
2022-10-05T22:34:04.380Z,6.73
2022-10-05T22:36:33.540Z,6.30
2022-10-05T22:39:00.706Z,6.03
2022-10-05T22:41:28.048Z,6.03
2022-10-05T22:43:55.085Z,6.93
2022-10-05T22:46:22.103Z,6.53
2022-10-05T22:48:49.230Z,5.67
2022-10-05T22:51:16.372Z,6.27
2022-10-05T22:53:43.372Z,6.27
2022-10-05T22:56:12.658Z,5.63
2022-10-05T22:58:40.719Z,6.37
2022-10-05T23:01:10.015Z,6.77
2022-10-05T23:03:37.181Z,6.90
2022-10-05T23:06:12.261Z,6.20
2022-10-05T23:08:40.164Z,5.93
2022-10-05T23:11:08.351Z,6.63
2022-10-05T23:13:35.919Z,6.80
2022-10-05T23:16:10.579Z,6.47
2022-10-05T23:18:38.043Z,6.63
2022-10-05T23:21:07.508Z,6.60
2022-10-05T23:23:38.357Z,6.80
2022-10-05T23:26:06.833Z,6.47
2022-10-05T23:28:35.330Z,6.20
2022-10-05T23:31:04.004Z,6.23
2022-10-05T23:33:31.587Z,6.97
2022-10-05T23:36:06.856Z,6.80
2022-10-05T23:38:35.072Z,7.50
2022-10-05T23:41:02.865Z,7.73
2022-10-05T23:43:30.593Z,7.10
2022-10-05T23:45:58.158Z,6.33
2022-10-05T23:48:26.749Z,6.83
2022-10-05T23:50:55.801Z,6.27
2022-10-05T23:53:23.554Z,7.50
2022-10-05T23:55:51.734Z,6.57
2022-10-05T23:58:19.296Z,6.20
